createdAt,value
2022-10-19T00:02:08.453Z,8.57
2022-10-19T00:04:34.877Z,8.50
2022-10-19T00:07:01.228Z,8.43
2022-10-19T00:09:27.730Z,8.51
2022-10-19T00:11:54.092Z,8.40
2022-10-19T00:14:23.432Z,8.33
2022-10-19T00:16:55.564Z,8.49
2022-10-19T00:19:25.198Z,8.42
2022-10-19T00:21:51.969Z,8.50
2022-10-19T00:24:18.674Z,8.67
2022-10-19T00:26:45.096Z,8.48
2022-10-19T00:29:12.983Z,8.44
2022-10-19T00:31:39.796Z,8.30
2022-10-19T00:34:06.188Z,8.30
2022-10-19T00:36:35.621Z,8.31
2022-10-19T00:39:04.220Z,8.21
2022-10-19T00:41:32.735Z,8.14
2022-10-19T00:44:01.947Z,7.99
2022-10-19T00:46:31.045Z,7.92
2022-10-19T00:49:01.415Z,7.99
2022-10-19T00:51:29.366Z,7.88
2022-10-19T00:53:56.599Z,7.91
2022-10-19T00:56:23.215Z,7.84
2022-10-19T00:58:49.768Z,7.77
2022-10-19T01:01:17.855Z,7.70
2022-10-19T01:03:44.985Z,7.66
2022-10-19T01:06:13.959Z,7.69
2022-10-19T01:08:40.315Z,7.68
2022-10-19T01:11:14.169Z,7.69
2022-10-19T01:13:48.251Z,7.58
2022-10-19T01:16:31.635Z,7.56
2022-10-19T01:19:10.313Z,7.53
2022-10-19T01:21:50.912Z,7.57
2022-10-19T01:24:28.810Z,7.48
2022-10-19T01:27:02.928Z,7.65
2022-10-19T01:29:59.752Z,7.63
2022-10-19T01:32:57.969Z,7.42
2022-10-19T01:35:41.609Z,7.47
2022-10-19T01:38:36.008Z,7.36
2022-10-19T01:41:14.352Z,7.27
2022-10-19T01:43:48.760Z,7.25
2022-10-19T01:46:19.421Z,7.15
2022-10-19T01:48:52.543Z,7.07
2022-10-19T01:51:23.223Z,7.05
2022-10-19T01:53:53.005Z,7.33
2022-10-19T01:56:22.084Z,7.11
2022-10-19T01:58:49.476Z,7.13
2022-10-19T02:01:18.463Z,7.10
2022-10-19T02:03:45.110Z,7.15
2022-10-19T02:06:12.668Z,7.07
2022-10-19T02:08:47.210Z,7.00
2022-10-19T02:11:14.340Z,7.07
2022-10-19T02:13:41.498Z,7.07
2022-10-19T02:16:12.815Z,7.15
2022-10-19T02:18:42.562Z,7.04
2022-10-19T02:21:09.466Z,7.15
2022-10-19T02:23:36.243Z,7.14
2022-10-19T02:26:02.878Z,6.99
2022-10-19T02:28:29.869Z,7.02
2022-10-19T02:30:56.393Z,7.05
2022-10-19T02:33:23.041Z,7.06
2022-10-19T02:35:49.604Z,7.02
2022-10-19T02:38:19.920Z,7.08
2022-10-19T02:40:54.124Z,7.14
2022-10-19T02:43:23.103Z,7.14
2022-10-19T02:45:59.064Z,7.24
2022-10-19T02:48:27.921Z,7.44
2022-10-19T02:50:54.273Z,7.45
2022-10-19T02:53:20.654Z,7.43
2022-10-19T02:55:48.531Z,7.46
2022-10-19T02:58:15.100Z,7.72
2022-10-19T03:00:41.667Z,7.70
2022-10-19T03:03:08.049Z,7.75
2022-10-19T03:05:34.412Z,7.70
2022-10-19T03:08:00.777Z,7.52
2022-10-19T03:10:27.120Z,7.41
2022-10-19T03:12:53.516Z,7.35
2022-10-19T03:15:20.058Z,7.21
2022-10-19T03:17:46.474Z,7.13
2022-10-19T03:20:12.834Z,7.14
2022-10-19T03:22:39.192Z,7.00
2022-10-19T03:25:06.007Z,7.02
2022-10-19T03:27:32.714Z,7.10
2022-10-19T03:29:59.199Z,7.04
2022-10-19T03:32:25.555Z,7.16
2022-10-19T03:34:51.898Z,7.27
2022-10-19T03:37:18.268Z,7.24
2022-10-19T03:39:44.618Z,7.28
2022-10-19T03:42:11.000Z,7.26
2022-10-19T03:44:37.379Z,7.23
2022-10-19T03:47:03.742Z,7.41
2022-10-19T03:49:30.102Z,7.41
2022-10-19T03:51:56.479Z,7.42
2022-10-19T03:54:25.088Z,7.52
2022-10-19T03:56:53.776Z,7.36
2022-10-19T03:59:20.203Z,7.26
2022-10-19T04:01:46.591Z,7.26
2022-10-19T04:04:15.937Z,7.16
2022-10-19T04:06:43.936Z,7.08
2022-10-19T04:09:13.405Z,7.03
2022-10-19T04:11:39.816Z,7.08
2022-10-19T04:14:06.419Z,7.13
2022-10-19T04:16:33.232Z,7.13
2022-10-19T04:19:00.277Z,7.25
2022-10-19T04:21:37.731Z,7.42
2022-10-19T04:24:06.804Z,7.30
2022-10-19T04:26:34.316Z,7.32
2022-10-19T04:29:01.557Z,7.09
2022-10-19T04:31:28.635Z,6.79
2022-10-19T04:33:55.642Z,6.75
2022-10-19T04:36:22.835Z,6.67
2022-10-19T04:38:49.224Z,6.50
2022-10-19T04:41:18.129Z,6.63
2022-10-19T04:43:47.839Z,6.62
2022-10-19T04:46:18.956Z,6.68
2022-10-19T04:48:46.558Z,6.74
2022-10-19T04:51:13.259Z,6.76
2022-10-19T04:53:40.661Z,6.74
2022-10-19T04:56:08.960Z,6.80
2022-10-19T04:58:35.651Z,6.84
2022-10-19T05:01:13.785Z,7.11
2022-10-19T05:03:40.435Z,7.05
2022-10-19T05:06:07.502Z,7.27
2022-10-19T05:08:34.208Z,7.15
2022-10-19T05:11:06.400Z,7.35
2022-10-19T05:13:32.984Z,7.19
2022-10-19T05:16:01.061Z,7.29
2022-10-19T05:18:27.888Z,7.17
2022-10-19T05:21:01.890Z,7.20
2022-10-19T05:23:29.168Z,7.05
2022-10-19T05:26:17.181Z,7.04
2022-10-19T05:28:48.063Z,7.04
2022-10-19T05:31:19.666Z,7.29
2022-10-19T05:33:46.375Z,7.17
2022-10-19T05:36:15.266Z,7.02
2022-10-19T05:38:42.503Z,6.88
2022-10-19T05:41:08.970Z,7.06
2022-10-19T05:43:35.484Z,6.87
2022-10-19T05:46:10.567Z,6.80
2022-10-19T05:48:37.931Z,6.68
2022-10-19T05:51:05.769Z,6.70
2022-10-19T05:53:33.063Z,6.71
2022-10-19T05:55:59.468Z,6.90
2022-10-19T05:58:25.902Z,6.93
2022-10-19T06:00:56.756Z,6.85
2022-10-19T06:03:24.111Z,6.95
2022-10-19T06:05:50.622Z,7.00
2022-10-19T06:08:17.907Z,6.95
2022-10-19T06:10:45.018Z,7.14
2022-10-19T06:13:11.745Z,7.28
2022-10-19T06:15:40.041Z,7.20
2022-10-19T06:18:07.849Z,6.84
2022-10-19T06:20:40.586Z,6.85
2022-10-19T06:23:07.551Z,6.85
2022-10-19T06:25:35.159Z,6.62
2022-10-19T06:28:01.980Z,6.65
2022-10-19T06:30:28.641Z,6.70
2022-10-19T06:32:55.271Z,6.54
2022-10-19T06:35:21.686Z,6.60
2022-10-19T06:37:48.038Z,6.76
2022-10-19T06:40:14.501Z,6.55
2022-10-19T06:42:40.993Z,6.60
2022-10-19T06:45:08.872Z,6.62
2022-10-19T06:47:36.351Z,6.67
2022-10-19T06:50:05.288Z,6.66
2022-10-19T06:52:32.984Z,6.76
2022-10-19T06:54:59.715Z,6.72
2022-10-19T06:57:26.132Z,6.74
2022-10-19T06:59:53.051Z,6.86
2022-10-19T07:02:20.305Z,7.02
2022-10-19T07:04:46.692Z,6.92
2022-10-19T07:07:13.104Z,7.01
2022-10-19T07:09:39.472Z,7.06
2022-10-19T07:12:05.954Z,7.09
2022-10-19T07:14:38.683Z,7.06
2022-10-19T07:17:10.985Z,7.23
2022-10-19T07:19:37.752Z,7.24
2022-10-19T07:22:04.348Z,7.15
2022-10-19T07:24:30.735Z,7.33
2022-10-19T07:26:57.166Z,7.34
2022-10-19T07:29:23.526Z,7.48
2022-10-19T07:31:50.007Z,7.41
2022-10-19T07:34:16.564Z,7.56
2022-10-19T07:36:45.266Z,7.70
2022-10-19T07:39:12.455Z,7.71
2022-10-19T07:41:39.387Z,7.83
2022-10-19T07:44:06.008Z,7.75
2022-10-19T07:46:39.050Z,7.81
2022-10-19T07:49:09.711Z,7.95
2022-10-19T07:51:37.296Z,8.06
2022-10-19T07:54:04.117Z,8.11
2022-10-19T07:56:30.938Z,8.24
2022-10-19T07:58:58.541Z,8.43
2022-10-19T08:01:30.168Z,8.47
2022-10-19T08:04:43.191Z,8.69
2022-10-19T08:06:44.069Z,8.51
2022-10-19T08:09:15.689Z,8.51
2022-10-19T08:11:49.314Z,8.57
2022-10-19T08:14:15.687Z,8.55
2022-10-19T08:16:44.204Z,8.52
2022-10-19T08:19:12.719Z,8.62
2022-10-19T08:21:40.588Z,8.70
2022-10-19T08:24:07.424Z,8.79
2022-10-19T08:26:40.025Z,8.86
2022-10-19T08:29:14.888Z,8.91
2022-10-19T08:31:42.488Z,9.05
2022-10-19T08:34:09.252Z,9.24
2022-10-19T08:36:36.936Z,9.33
2022-10-19T08:39:07.844Z,9.42
2022-10-19T08:41:40.254Z,9.58
2022-10-19T08:44:10.248Z,9.80
2022-10-19T08:47:00.441Z,9.68
2022-10-19T08:49:30.687Z,9.83
2022-10-19T08:52:04.499Z,9.99
2022-10-19T08:54:38.160Z,10.00
2022-10-19T08:57:15.561Z,10.28
2022-10-19T08:59:50.747Z,10.49
2022-10-19T09:02:45.048Z,10.35
2022-10-19T09:05:26.583Z,10.50
2022-10-19T09:07:53.800Z,10.63
2022-10-19T09:10:25.594Z,10.83
2022-10-19T09:13:01.402Z,10.93
2022-10-19T09:15:47.606Z,11.21
2022-10-19T09:18:20.110Z,11.15
2022-10-19T09:20:49.444Z,11.28
2022-10-19T09:23:22.088Z,11.45
2022-10-19T09:25:50.268Z,11.43
2022-10-19T09:28:46.453Z,11.55
2022-10-19T09:31:21.983Z,11.78
2022-10-19T09:33:53.180Z,11.91
2022-10-19T09:36:27.570Z,12.13
2022-10-19T09:38:59.538Z,12.45
2022-10-19T09:41:25.961Z,12.42
2022-10-19T09:43:54.365Z,12.51
2022-10-19T09:46:32.700Z,12.62
2022-10-19T09:49:01.326Z,12.77
2022-10-19T09:51:39.237Z,12.86
2022-10-19T09:54:05.674Z,13.08
2022-10-19T09:56:38.012Z,13.15
2022-10-19T09:59:04.556Z,13.29
2022-10-19T10:01:43.043Z,13.25
2022-10-19T10:04:15.749Z,13.59
2022-10-19T10:06:42.927Z,13.64
2022-10-19T10:09:15.941Z,13.91
2022-10-19T10:11:43.823Z,13.84
2022-10-19T10:14:39.850Z,14.22
2022-10-19T10:17:22.376Z,13.77
2022-10-19T10:19:58.026Z,13.87
2022-10-19T10:22:30.596Z,14.28
2022-10-19T10:24:57.543Z,13.91
2022-10-19T10:27:33.442Z,14.02
2022-10-19T10:30:06.150Z,14.12
2022-10-19T10:32:37.384Z,14.30
2022-10-19T10:35:16.566Z,14.51
2022-10-19T10:37:46.969Z,14.44
2022-10-19T10:40:30.804Z,14.41
2022-10-19T10:43:02.826Z,14.54
2022-10-19T10:45:34.869Z,14.56
2022-10-19T10:48:17.582Z,14.64
2022-10-19T10:50:44.271Z,14.63
2022-10-19T10:53:33.185Z,14.91
2022-10-19T10:55:59.608Z,14.89
2022-10-19T10:58:40.901Z,14.97
2022-10-19T11:01:16.237Z,15.14
2022-10-19T11:03:48.279Z,15.42
2022-10-19T11:06:14.912Z,15.69
2022-10-19T11:08:47.810Z,15.88
2022-10-19T11:11:20.835Z,15.94
2022-10-19T11:13:50.097Z,15.76
2022-10-19T11:16:18.769Z,15.46
2022-10-19T11:18:52.430Z,15.82
2022-10-19T11:21:31.882Z,15.89
2022-10-19T11:24:33.888Z,15.83
2022-10-19T11:27:38.233Z,15.14
2022-10-19T11:30:17.192Z,15.09
2022-10-19T11:32:52.779Z,14.64
2022-10-19T11:35:52.790Z,14.26
2022-10-19T11:38:38.975Z,14.04
2022-10-19T11:41:26.380Z,13.98
2022-10-19T11:44:23.360Z,14.08
2022-10-19T11:47:14.785Z,13.88
2022-10-19T11:49:44.792Z,14.03
2022-10-19T11:52:37.214Z,14.01
2022-10-19T11:55:03.577Z,13.79
2022-10-19T11:57:43.232Z,13.92
2022-10-19T12:00:37.584Z,14.02
2022-10-19T12:03:14.515Z,14.05
2022-10-19T12:05:59.251Z,13.92
2022-10-19T12:08:56.636Z,14.04
2022-10-19T12:11:44.816Z,14.13
2022-10-19T12:14:21.812Z,13.93
2022-10-19T12:16:51.025Z,13.99
2022-10-19T12:19:35.953Z,14.01
2022-10-19T12:22:04.181Z,13.94
2022-10-19T12:24:32.716Z,14.01
2022-10-19T12:26:59.708Z,14.12
2022-10-19T12:29:37.787Z,14.20
2022-10-19T12:32:04.955Z,14.16
2022-10-19T12:35:17.726Z,14.27
2022-10-19T12:37:56.549Z,14.18
2022-10-19T12:40:36.160Z,13.97
2022-10-19T12:43:19.869Z,13.86
2022-10-19T12:46:05.814Z,13.86
2022-10-19T12:48:32.178Z,14.13
2022-10-19T12:51:00.796Z,14.34
2022-10-19T12:53:31.367Z,14.51
2022-10-19T12:56:24.631Z,14.80
2022-10-19T12:59:01.115Z,14.77
2022-10-19T13:01:43.810Z,14.85
2022-10-19T13:04:19.775Z,15.20
2022-10-19T13:06:51.528Z,15.05
2022-10-19T13:09:31.854Z,14.91
2022-10-19T13:12:21.796Z,14.67
2022-10-19T13:14:52.599Z,14.95
2022-10-19T13:17:46.388Z,14.70
2022-10-19T13:20:16.005Z,14.75
2022-10-19T13:22:47.260Z,15.08
2022-10-19T13:25:19.727Z,15.05
2022-10-19T13:27:47.593Z,15.21
2022-10-19T13:30:36.072Z,16.19
2022-10-19T13:33:31.366Z,17.39
2022-10-19T13:36:00.830Z,17.92
2022-10-19T13:41:25.049Z,18.81
2022-10-19T13:44:10.172Z,18.38
2022-10-19T13:46:45.660Z,19.58
2022-10-19T13:49:34.205Z,19.91
2022-10-19T13:52:11.777Z,21.25
2022-10-19T13:54:46.953Z,21.45
2022-10-19T13:57:37.418Z,20.43
2022-10-19T14:00:14.333Z,20.65
2022-10-19T14:02:59.560Z,21.22
2022-10-19T14:05:53.910Z,21.80
2022-10-19T14:08:38.468Z,21.99
2022-10-19T14:11:12.105Z,22.00
2022-10-19T14:13:38.447Z,22.06
2022-10-19T14:16:05.130Z,21.53
2022-10-19T14:18:33.792Z,21.84
2022-10-19T14:21:07.324Z,21.41
2022-10-19T14:23:36.157Z,19.87
2022-10-19T14:26:04.797Z,19.87
2022-10-19T14:28:31.793Z,19.44
2022-10-19T14:31:05.974Z,19.88
2022-10-19T14:33:40.010Z,19.09
2022-10-19T14:36:21.106Z,18.51
2022-10-19T14:38:49.675Z,18.13
2022-10-19T14:41:30.117Z,18.11
2022-10-19T14:43:56.948Z,18.23
2022-10-19T14:46:29.913Z,17.63
2022-10-19T14:49:01.099Z,17.24
2022-10-19T14:51:40.400Z,16.75
2022-10-19T14:54:11.198Z,16.49
2022-10-19T14:57:00.913Z,16.35
2022-10-19T14:59:30.892Z,16.12
2022-10-19T15:02:00.024Z,15.67
2022-10-19T15:04:32.731Z,15.46
2022-10-19T15:07:01.384Z,15.27
2022-10-19T15:09:37.398Z,15.12
2022-10-19T15:12:15.667Z,15.30
2022-10-19T15:14:42.221Z,14.93
2022-10-19T15:17:28.115Z,14.97
2022-10-19T15:19:56.090Z,14.89
2022-10-19T15:22:39.193Z,14.36
2022-10-19T15:25:08.621Z,14.54
2022-10-19T15:27:37.042Z,14.38
2022-10-19T15:30:17.948Z,14.30
2022-10-19T15:32:46.177Z,14.53
2022-10-19T15:35:18.546Z,14.30
2022-10-19T15:37:45.613Z,14.11
2022-10-19T15:40:17.907Z,14.22
2022-10-19T15:42:44.353Z,14.08
2022-10-19T15:45:39.509Z,13.91
2022-10-19T15:48:24.541Z,13.61
2022-10-19T15:50:51.890Z,13.59
2022-10-19T15:53:19.360Z,13.50
2022-10-19T15:55:46.031Z,13.61
2022-10-19T15:58:13.313Z,13.41
2022-10-19T16:00:40.802Z,13.24
2022-10-19T16:03:07.438Z,13.16
2022-10-19T16:05:35.508Z,13.08
2022-10-19T16:08:02.100Z,12.96
2022-10-19T16:10:28.493Z,12.90
2022-10-19T16:12:54.938Z,12.78
2022-10-19T16:15:22.882Z,12.76
2022-10-19T16:17:54.224Z,12.76
2022-10-19T16:20:21.265Z,12.62
2022-10-19T16:22:48.102Z,12.59
2022-10-19T16:25:15.213Z,12.57
2022-10-19T16:27:41.726Z,12.35
2022-10-19T16:30:08.673Z,12.26
2022-10-19T16:32:35.064Z,12.29
2022-10-19T16:35:01.434Z,12.21
2022-10-19T16:37:27.968Z,12.31
2022-10-19T16:39:54.320Z,12.35
2022-10-19T16:42:21.278Z,12.32
2022-10-19T16:44:47.634Z,12.18
2022-10-19T16:47:14.758Z,12.17
2022-10-19T16:49:41.113Z,11.91
2022-10-19T16:52:07.484Z,11.99
2022-10-19T16:54:33.873Z,11.96
2022-10-19T16:57:00.238Z,11.96
2022-10-19T16:59:26.705Z,11.96
2022-10-19T17:01:53.866Z,11.86
2022-10-19T17:04:20.516Z,11.66
2022-10-19T17:06:46.933Z,11.72
2022-10-19T17:11:59.681Z,11.58
2022-10-19T17:14:26.064Z,11.47
2022-10-19T17:16:52.468Z,11.65
2022-10-19T17:19:18.835Z,11.43
2022-10-19T17:21:45.208Z,11.60
2022-10-19T17:24:21.043Z,11.38
2022-10-19T17:26:49.695Z,11.57
2022-10-19T17:29:16.101Z,11.48
2022-10-19T17:31:43.085Z,11.47
2022-10-19T17:34:09.968Z,11.44
2022-10-19T17:39:09.026Z,11.30
2022-10-19T17:41:35.552Z,11.29
2022-10-19T17:44:03.603Z,11.26
2022-10-19T17:46:32.838Z,11.41
2022-10-19T17:48:59.741Z,11.38
2022-10-19T17:51:29.097Z,11.20
2022-10-19T17:53:58.052Z,11.17
2022-10-19T17:56:24.924Z,11.26
2022-10-19T17:58:51.484Z,11.31
2022-10-19T18:01:19.819Z,10.91
2022-10-19T18:03:46.497Z,11.12
2022-10-19T18:06:25.980Z,11.11
2022-10-19T18:08:54.434Z,10.93
2022-10-19T18:11:26.615Z,11.00
2022-10-19T18:13:56.230Z,10.87
2022-10-19T18:16:27.745Z,11.09
2022-10-19T18:18:56.301Z,10.95
2022-10-19T18:21:25.705Z,11.04
2022-10-19T18:23:53.478Z,11.08
2022-10-19T18:26:23.084Z,11.09
2022-10-19T18:28:50.468Z,11.11
2022-10-19T18:31:21.861Z,11.02
2022-10-19T18:33:50.618Z,11.07
2022-10-19T18:36:16.971Z,10.95
2022-10-19T18:38:43.350Z,11.05
2022-10-19T18:43:39.301Z,10.87
2022-10-19T18:46:06.169Z,10.86
2022-10-19T18:48:32.616Z,10.88
2022-10-19T18:51:02.960Z,10.75
2022-10-19T18:53:30.018Z,10.68
2022-10-19T18:56:00.485Z,10.69
2022-10-19T18:58:27.060Z,10.63
2022-10-19T19:01:08.439Z,10.61
2022-10-19T19:03:35.496Z,10.54
2022-10-19T19:06:07.348Z,10.59
2022-10-19T19:08:34.111Z,10.46
2022-10-19T19:11:18.422Z,10.52
2022-10-19T19:13:49.756Z,10.39
2022-10-19T19:16:16.263Z,10.28
2022-10-19T19:18:42.832Z,10.32
2022-10-19T19:21:17.430Z,10.31
2022-10-19T19:23:44.484Z,10.33
2022-10-19T19:26:12.733Z,10.15
2022-10-19T19:28:41.554Z,10.24
2022-10-19T19:31:10.101Z,10.19
2022-10-19T19:33:36.539Z,10.14
2022-10-19T19:36:07.459Z,10.05
2022-10-19T19:38:34.417Z,10.06
2022-10-19T19:41:03.849Z,10.09
2022-10-19T19:43:31.735Z,9.94
2022-10-19T19:46:03.119Z,9.86
2022-10-19T19:48:32.669Z,9.90
2022-10-19T19:50:59.083Z,9.83
2022-10-19T19:53:25.444Z,9.82
2022-10-19T19:55:51.812Z,9.74
2022-10-19T19:58:18.845Z,9.71
2022-10-19T20:00:46.462Z,9.74
2022-10-19T20:03:13.503Z,9.69
2022-10-19T20:05:40.805Z,9.74
2022-10-19T20:08:07.938Z,9.49
2022-10-19T20:10:38.348Z,9.55
2022-10-19T20:15:38.953Z,9.59
2022-10-19T20:18:06.281Z,9.56
2022-10-19T20:20:32.710Z,9.53
2022-10-19T20:22:59.071Z,9.54
2022-10-19T20:25:25.414Z,9.59
2022-10-19T20:27:51.779Z,9.62
2022-10-19T20:30:18.283Z,9.55
2022-10-19T20:32:44.663Z,9.52
2022-10-19T20:35:11.092Z,9.37
2022-10-19T20:37:37.468Z,9.27
2022-10-19T20:40:08.498Z,9.26
2022-10-19T20:42:35.632Z,9.28
2022-10-19T20:45:02.247Z,9.26
2022-10-19T20:47:28.599Z,9.14
2022-10-19T20:49:55.018Z,9.00
2022-10-19T20:52:21.441Z,9.12
2022-10-19T20:54:48.483Z,9.05
2022-10-19T20:57:14.843Z,8.85
2022-10-19T20:59:41.194Z,8.88
2022-10-19T21:02:09.675Z,8.84
2022-10-19T21:04:36.089Z,8.83
2022-10-19T21:07:04.321Z,8.88
2022-10-19T21:09:30.724Z,8.85
2022-10-19T21:11:57.179Z,8.70
2022-10-19T21:14:28.019Z,8.77
2022-10-19T21:16:57.041Z,8.78
2022-10-19T21:19:25.421Z,8.70
2022-10-19T21:21:57.800Z,8.77
2022-10-19T21:24:28.370Z,8.78
2022-10-19T21:26:54.778Z,8.74
2022-10-19T21:29:21.298Z,8.73
2022-10-19T21:31:49.643Z,8.84
2022-10-19T21:34:18.382Z,8.74
2022-10-19T21:36:45.039Z,8.76
2022-10-19T21:39:12.751Z,8.58
2022-10-19T21:41:39.130Z,8.65
2022-10-19T21:44:05.559Z,8.62
2022-10-19T21:46:31.973Z,8.62
2022-10-19T21:48:58.365Z,8.50
2022-10-19T21:51:44.316Z,8.40
2022-10-19T21:54:15.418Z,8.51
2022-10-19T21:56:41.957Z,8.39
2022-10-19T21:59:08.443Z,8.51
2022-10-19T22:01:38.663Z,8.51
2022-10-19T22:04:10.525Z,8.44
2022-10-19T22:06:36.903Z,8.47
2022-10-19T22:09:06.206Z,8.35
2022-10-19T22:11:32.809Z,8.43
2022-10-19T22:14:00.979Z,8.34
2022-10-19T22:16:28.072Z,8.27
2022-10-19T22:18:55.438Z,8.23
2022-10-19T22:21:29.303Z,8.18
2022-10-19T22:24:05.200Z,8.15
2022-10-19T22:26:34.481Z,8.14
2022-10-19T22:29:01.739Z,8.06
2022-10-19T22:31:29.502Z,8.17
2022-10-19T22:33:56.151Z,8.09
2022-10-19T22:36:22.538Z,8.07
2022-10-19T22:38:48.948Z,8.13
2022-10-19T22:41:15.307Z,8.13
2022-10-19T22:43:41.761Z,8.10
2022-10-19T22:46:08.254Z,8.08
2022-10-19T22:48:34.618Z,8.07
2022-10-19T22:51:01.022Z,8.06
2022-10-19T22:53:27.473Z,8.10
2022-10-19T22:55:53.895Z,7.98
2022-10-19T22:58:20.285Z,8.06
2022-10-19T23:01:00.566Z,8.10
2022-10-19T23:03:26.956Z,8.22
2022-10-19T23:05:53.327Z,8.17
2022-10-19T23:08:19.707Z,8.01
2022-10-19T23:10:46.060Z,8.02
2022-10-19T23:13:12.448Z,8.06
2022-10-19T23:15:43.067Z,8.16
2022-10-19T23:18:10.572Z,8.07
2022-10-19T23:20:36.979Z,8.13
2022-10-19T23:23:03.479Z,8.16
2022-10-19T23:25:29.842Z,8.25
2022-10-19T23:27:56.203Z,8.04
2022-10-19T23:30:22.657Z,8.02
2022-10-19T23:32:49.085Z,8.00
2022-10-19T23:35:15.506Z,8.06
2022-10-19T23:37:41.880Z,7.88
2022-10-19T23:40:08.602Z,7.90
2022-10-19T23:42:34.942Z,7.88
2022-10-19T23:45:01.298Z,7.87
2022-10-19T23:47:27.819Z,7.83
2022-10-19T23:49:54.194Z,7.83
2022-10-19T23:52:20.547Z,7.83
2022-10-19T23:54:46.922Z,7.84
2022-10-19T23:57:13.353Z,7.84
2022-10-19T23:59:39.767Z,7.92
